Portada
METAR-TAF:

METAR-TAF

Aeropuertos :

Aeropuerto de Orán Es Sénia

Orán, Argelia

latitud: 35-38N, longitud: 000-36W, altitud: 90 m

Observación

El informe se hizo hace 31 minutos, a las 22:30 UTC
Viento 5 kt del suroeste
Temperatura 8°C
Humedad 87%
Presión 1026 hPa
Visibilidad: 9000 m
Escasas nubes a una altura de 1000 ft

METAR: DAOO 152230Z 22005KT 9000 FEW010 08/06 Q1026

Hora: 00:01 (23:01 UTC)

Pronóstico

El informe se hizo hace 6 horas y 1 minutos, a las 17:00 UTC
Pronóstico válido del 15 a las 18 UTC al 16 a las 18 UTC
Viento 10 kt del oeste-suroeste
Visibilidad 10 km o más
sin nubes por debajo de 1500 m y sin presencia de cumulonimbus.
Evolucionando progresivamente
del 15 a las 20 UTC al 15 a las 22 UTC
Viento 2 kt con dirección variable
Evolucionando progresivamente
del 16 a las 08 UTC al 16 a las 10 UTC
Viento 10 kt del oeste

TAF: DAOO 151700Z 1518/1618 24010KT CAVOK BECMG 1520/1522 VRB02KT BECMG 1608/1610 26010KT

Observaciones y pronósticos meteorológicos de más de 4000 aeropuertos (mensajes METAR y TAF).

Los puntos amarillos y rojos representan las estaciones disponibles.

Ponga el ratón en el punto deseado para ver el nombre de la estación.

Haga clic para ver las observaciones y los pronósticos meteorológicos.

Para cambiar el mapa : haga clic en los botones verdes con una cruz de color negro para hacer un zoom, en el botón verde con un guión para alejar o en las flechas verdes para mapas adyacentes.


METAR-TAF: